Time;durP1;ratioP1;P1;durP2;ratioP2;P2;SDS_P1;SDS_P2;PMS_P1;PMS_P2;Temp;Humidity;BMP_temperature;BMP_pressure;BME280_temperature;BME280_humidity;BME280_pressure;Samples;Min_cycle;Max_cycle;Signal;HPM_P1;HPM_P2
2021/08/29 00:01:01;;;;;;;8.07;7.27;;;14.70;99.90;;;;;;4981073;28;20494;-85
2021/08/29 00:03:29;;;;;;;7.57;6.87;;;14.70;99.90;;;;;;4990357;28;20471;-84
2021/08/29 00:05:56;;;;;;;7.10;6.40;;;14.70;99.90;;;;;;4987076;28;20447;-85
2021/08/29 00:08:23;;;;;;;8.07;7.27;;;14.70;99.90;;;;;;4981214;28;20454;-83
2021/08/29 00:10:49;;;;;;;6.50;5.80;;;14.70;99.90;;;;;;4983357;28;21058;-83
2021/08/29 00:13:16;;;;;;;8.80;6.83;;;14.70;99.90;;;;;;4989074;28;20875;-82
2021/08/29 00:15:43;;;;;;;6.93;6.33;;;14.70;99.90;;;;;;5002115;28;20506;-84
2021/08/29 00:18:10;;;;;;;7.10;6.43;;;14.60;99.90;;;;;;4992403;28;20518;-85
2021/08/29 00:20:38;;;;;;;6.90;6.20;;;14.60;99.90;;;;;;4989418;28;20541;-85
2021/08/29 00:23:05;;;;;;;8.13;6.60;;;14.60;99.90;;;;;;4989478;28;20482;-84
2021/08/29 00:25:32;;;;;;;7.10;6.40;;;14.60;99.90;;;;;;4988948;28;20459;-85
2021/08/29 00:27:59;;;;;;;8.93;6.83;;;14.60;99.90;;;;;;4992083;28;20452;-87
2021/08/29 00:30:25;;;;;;;7.23;6.53;;;14.60;99.90;;;;;;4993746;28;20490;-83
2021/08/29 00:32:52;;;;;;;7.20;6.47;;;14.60;99.90;;;;;;4992846;28;20555;-86
2021/08/29 00:35:19;;;;;;;6.80;6.20;;;14.70;99.90;;;;;;4989376;28;20543;-86
2021/08/29 00:37:47;;;;;;;6.37;5.87;;;14.70;99.90;;;;;;4994598;28;20447;-86
2021/08/29 00:40:16;;;;;;;7.40;6.70;;;14.70;99.90;;;;;;4988307;28;20450;-86
2021/08/29 00:42:44;;;;;;;7.10;6.50;;;14.80;99.90;;;;;;4984768;28;20475;-85
2021/08/29 00:45:11;;;;;;;6.67;6.07;;;14.80;99.90;;;;;;4983870;28;20462;-85
2021/08/29 00:47:39;;;;;;;6.90;6.30;;;14.80;99.90;;;;;;4983508;28;20440;-84
2021/08/29 00:50:07;;;;;;;7.27;6.60;;;14.80;99.90;;;;;;4984135;28;20490;-85
2021/08/29 00:52:36;;;;;;;7.63;6.90;;;14.80;99.90;;;;;;4984564;28;20483;-86
2021/08/29 00:55:05;;;;;;;7.60;6.90;;;14.80;99.90;;;;;;4986405;28;20447;-85
2021/08/29 00:57:32;;;;;;;7.87;7.17;;;14.80;99.90;;;;;;4987473;28;20443;-82
2021/08/29 00:59:59;;;;;;;7.10;6.50;;;14.70;99.90;;;;;;4985013;28;20945;-85
2021/08/29 01:02:27;;;;;;;6.63;6.03;;;14.70;99.90;;;;;;4992012;28;20468;-87
2021/08/29 01:05:00;;;;;;;7.53;6.87;;;14.70;99.90;;;;;;4989350;28;20521;-85
2021/08/29 01:07:33;;;;;;;6.60;5.93;;;14.80;99.90;;;;;;4989315;28;20452;-84
2021/08/29 01:10:05;;;;;;;7.93;6.63;;;14.70;99.90;;;;;;4995843;28;20543;-84
2021/08/29 01:12:32;;;;;;;7.33;6.47;;;14.70;99.90;;;;;;4997467;28;20474;-84
2021/08/29 01:15:04;;;;;;;6.60;6.10;;;14.80;99.90;;;;;;4993421;28;20482;-83
2021/08/29 01:17:33;;;;;;;11.70;6.10;;;14.80;99.90;;;;;;4997751;28;20459;-84
2021/08/29 01:20:08;;;;;;;7.50;6.57;;;14.80;99.90;;;;;;4989028;28;20440;-85
2021/08/29 01:22:35;;;;;;;9.10;6.90;;;14.80;99.90;;;;;;4986624;28;20471;-83
2021/08/29 01:25:05;;;;;;;6.73;6.10;;;14.80;99.90;;;;;;4987604;28;20453;-85
2021/08/29 01:27:43;;;;;;;7.40;6.70;;;14.80;99.90;;;;;;4986921;28;20459;-84
2021/08/29 01:30:13;;;;;;;6.77;6.07;;;14.80;99.90;;;;;;4986040;28;20859;-85
2021/08/29 01:32:41;;;;;;;7.20;6.20;;;14.80;99.90;;;;;;4986903;28;20537;-85
2021/08/29 01:35:09;;;;;;;6.47;5.80;;;14.80;99.90;;;;;;4987175;28;20455;-85
2021/08/29 01:37:36;;;;;;;6.50;5.80;;;14.70;99.90;;;;;;4984439;28;20828;-85
2021/08/29 01:40:04;;;;;;;7.97;7.27;;;14.80;99.90;;;;;;4981608;28;20448;-85
2021/08/29 01:42:31;;;;;;;7.97;6.83;;;14.70;99.90;;;;;;4989460;28;20476;-86
2021/08/29 01:44:59;;;;;;;6.80;6.20;;;14.70;99.90;;;;;;4986487;28;20459;-86
2021/08/29 01:47:27;;;;;;;8.00;6.87;;;14.70;99.90;;;;;;4988983;28;20443;-85
2021/08/29 01:49:54;;;;;;;5.97;5.37;;;14.70;99.90;;;;;;4988799;28;20497;-85
2021/08/29 01:52:21;;;;;;;6.80;6.20;;;14.70;99.90;;;;;;4990175;28;20496;-85
2021/08/29 01:54:47;;;;;;;6.73;6.13;;;14.70;99.90;;;;;;4988496;28;20516;-85
2021/08/29 01:57:14;;;;;;;6.67;6.07;;;14.70;99.90;;;;;;4994281;28;20523;-83
2021/08/29 01:59:42;;;;;;;7.57;6.87;;;14.60;99.90;;;;;;4992244;28;20436;-85
2021/08/29 02:02:10;;;;;;;7.37;6.77;;;14.60;99.90;;;;;;4997818;28;20448;-82
2021/08/29 02:04:40;;;;;;;8.20;6.17;;;14.60;99.90;;;;;;4998679;28;20451;-85
2021/08/29 02:07:14;;;;;;;6.93;6.43;;;14.60;99.90;;;;;;4993281;28;20454;-83
2021/08/29 02:09:43;;;;;;;7.87;7.07;;;14.60;99.90;;;;;;4991886;28;20479;-85
2021/08/29 02:12:12;;;;;;;6.87;6.27;;;14.70;99.90;;;;;;4993754;28;20475;-85
2021/08/29 02:14:45;;;;;;;6.80;5.90;;;14.70;99.90;;;;;;4994469;28;20448;-84
2021/08/29 02:17:13;;;;;;;6.87;6.27;;;14.70;99.90;;;;;;4993234;28;20448;-83
2021/08/29 02:19:43;;;;;;;7.70;7.00;;;14.70;99.90;;;;;;4990938;28;20448;-86
2021/08/29 02:22:10;;;;;;;6.77;6.10;;;14.60;99.90;;;;;;4991374;28;20487;-84
2021/08/29 02:24:37;;;;;;;7.23;6.63;;;14.60;99.90;;;;;;4991767;28;21086;-85
2021/08/29 02:27:05;;;;;;;7.20;6.13;;;14.60;99.90;;;;;;4990935;28;20447;-84
2021/08/29 02:29:32;;;;;;;7.03;6.40;;;14.60;99.90;;;;;;4990596;28;20476;-85
2021/08/29 02:31:59;;;;;;;7.53;6.80;;;14.60;99.90;;;;;;4981115;28;20848;-84
2021/08/29 02:34:25;;;;;;;9.93;6.30;;;14.60;99.90;;;;;;4984202;28;20474;-86
2021/08/29 02:36:54;;;;;;;7.33;6.70;;;14.60;99.90;;;;;;4984800;28;20467;-83
2021/08/29 02:39:21;;;;;;;7.70;6.90;;;14.60;99.90;;;;;;4994077;28;20450;-82
2021/08/29 02:41:50;;;;;;;9.40;7.33;;;14.60;99.90;;;;;;4984559;28;20535;-84
2021/08/29 02:44:19;;;;;;;7.57;6.97;;;14.50;99.90;;;;;;4983893;28;20459;-85
2021/08/29 02:46:46;;;;;;;8.20;7.37;;;14.50;99.90;;;;;;4985343;28;20451;-86
2021/08/29 02:49:14;;;;;;;11.67;6.97;;;14.50;99.90;;;;;;4984542;28;20448;-85
2021/08/29 02:51:41;;;;;;;9.40;6.83;;;14.50;99.90;;;;;;4983738;28;20471;-84
2021/08/29 02:54:13;;;;;;;8.97;8.17;;;14.40;99.90;;;;;;4982015;28;20476;-86
2021/08/29 02:56:41;;;;;;;8.37;7.60;;;14.40;99.90;;;;;;4981071;28;20447;-85
2021/08/29 02:59:08;;;;;;;10.17;7.40;;;14.40;99.90;;;;;;4980575;28;20467;-85
2021/08/29 03:01:36;;;;;;;8.60;7.53;;;14.30;99.90;;;;;;4980250;28;20464;-86
2021/08/29 03:04:04;;;;;;;8.57;7.70;;;14.30;99.90;;;;;;4980891;28;20454;-83
2021/08/29 03:06:31;;;;;;;9.97;7.20;;;14.20;99.90;;;;;;4983864;28;20448;-84
2021/08/29 03:08:58;;;;;;;9.27;8.13;;;14.20;99.90;;;;;;4979291;28;20447;-84
2021/08/29 03:11:26;;;;;;;8.03;7.23;;;14.20;99.90;;;;;;4980891;28;20498;-84
2021/08/29 03:13:54;;;;;;;11.60;7.87;;;14.10;99.90;;;;;;4982985;28;20459;-85
2021/08/29 03:16:20;;;;;;;8.60;7.70;;;14.10;99.90;;;;;;4982308;28;20459;-85
2021/08/29 03:18:48;;;;;;;9.23;8.27;;;14.10;99.90;;;;;;4982001;28;20454;-84
2021/08/29 03:21:15;;;;;;;8.37;7.30;;;14.10;99.90;;;;;;4979311;28;20494;-86
2021/08/29 03:23:42;;;;;;;8.10;7.30;;;14.10;99.90;;;;;;4979734;28;20456;-85
2021/08/29 03:26:09;;;;;;;10.63;9.00;;;14.00;99.90;;;;;;4990252;28;20424;-83
2021/08/29 03:28:38;;;;;;;8.70;7.80;;;14.00;99.90;;;;;;4998189;28;20454;-83
2021/08/29 03:31:05;;;;;;;8.40;7.60;;;14.00;99.90;;;;;;4988655;28;20478;-83
2021/08/29 03:33:34;;;;;;;8.00;7.27;;;14.00;99.90;;;;;;4994263;28;20796;-83
2021/08/29 03:36:01;;;;;;;10.60;8.90;;;14.10;99.90;;;;;;4982455;28;20448;-87
2021/08/29 03:38:30;;;;;;;8.87;7.90;;;14.10;99.90;;;;;;4980981;28;20532;-85
2021/08/29 03:40:57;;;;;;;10.10;8.50;;;14.00;99.90;;;;;;4980510;28;20454;-85
2021/08/29 03:43:24;;;;;;;9.07;8.20;;;14.00;99.90;;;;;;4991162;22;20507;-92
2021/08/29 03:45:52;;;;;;;9.50;8.60;;;14.00;99.90;;;;;;4977080;28;20454;-92
2021/08/29 03:48:20;;;;;;;9.97;8.50;;;14.00;99.90;;;;;;4990802;28;20431;-92
2021/08/29 03:50:49;;;;;;;8.10;7.30;;;14.00;99.90;;;;;;4977577;28;20487;-92
2021/08/29 03:53:17;;;;;;;9.43;8.50;;;14.00;99.90;;;;;;4977799;28;20471;-91
2021/08/29 03:55:44;;;;;;;8.80;8.00;;;14.00;99.90;;;;;;4975645;28;20459;-92
2021/08/29 03:58:11;;;;;;;10.07;8.97;;;14.00;99.90;;;;;;4995704;28;20456;-91
2021/08/29 04:00:38;;;;;;;9.23;8.33;;;13.90;99.90;;;;;;4993327;28;20450;-92
2021/08/29 04:03:07;;;;;;;8.30;7.60;;;13.90;99.90;;;;;;4978455;28;20475;-92
2021/08/29 04:05:37;;;;;;;10.37;9.37;;;13.90;99.90;;;;;;4977826;28;20443;-91
2021/08/29 04:08:06;;;;;;;9.07;8.23;;;13.90;99.90;;;;;;4977115;28;20435;-91
2021/08/29 04:10:34;;;;;;;8.77;7.97;;;13.90;99.90;;;;;;4975439;28;20483;-91
2021/08/29 04:13:01;;;;;;;9.13;8.20;;;13.90;99.90;;;;;;4975615;28;20472;-91
2021/08/29 04:15:28;;;;;;;9.67;8.00;;;13.80;99.90;;;;;;4976088;28;20456;-92
2021/08/29 04:17:55;;;;;;;9.40;8.50;;;13.80;99.90;;;;;;4975613;28;20439;-91
2021/08/29 04:20:24;;;;;;;10.90;9.00;;;13.80;99.90;;;;;;4976334;28;20979;-91
2021/08/29 04:22:51;;;;;;;12.00;8.67;;;13.80;99.90;;;;;;4995411;28;20459;-91
2021/08/29 04:25:18;;;;;;;7.87;7.17;;;13.80;99.90;;;;;;4988448;28;20458;-91
2021/08/29 04:27:45;;;;;;;8.10;7.40;;;13.80;99.90;;;;;;4976041;28;20439;-91
2021/08/29 04:30:13;;;;;;;10.73;9.70;;;13.80;99.90;;;;;;4975298;28;20510;-91
2021/08/29 04:32:44;;;;;;;7.73;7.03;;;13.80;99.90;;;;;;4975354;28;20483;-92
2021/08/29 04:35:11;;;;;;;8.60;7.80;;;13.80;99.90;;;;;;4975112;28;20469;-92
2021/08/29 04:37:39;;;;;;;9.50;8.60;;;13.80;99.90;;;;;;4975385;28;20998;-91
2021/08/29 04:40:08;;;;;;;9.67;8.80;;;13.80;99.90;;;;;;4974991;28;20459;-91
2021/08/29 04:42:35;;;;;;;9.60;8.70;;;13.70;99.90;;;;;;4974848;28;20485;-91
2021/08/29 04:45:01;;;;;;;9.03;8.13;;;13.70;99.90;;;;;;4974983;28;20458;-91
2021/08/29 04:47:28;;;;;;;10.17;9.03;;;13.70;99.90;;;;;;4975219;28;20465;-92
2021/08/29 04:49:55;;;;;;;9.17;8.27;;;13.70;99.90;;;;;;4977545;28;20455;-92
2021/08/29 04:52:21;;;;;;;9.73;8.50;;;13.70;99.90;;;;;;4990243;28;20487;-90
2021/08/29 04:54:50;;;;;;;9.23;8.30;;;13.70;99.90;;;;;;4978727;28;20465;-90
2021/08/29 04:57:16;;;;;;;9.37;8.47;;;13.70;99.90;;;;;;4990796;28;20456;-89
2021/08/29 04:59:43;;;;;;;8.57;7.87;;;13.70;99.90;;;;;;4988689;28;20464;-90
2021/08/29 05:02:10;;;;;;;9.07;7.90;;;13.70;99.90;;;;;;4979084;28;20462;-92
2021/08/29 05:04:36;;;;;;;8.37;7.57;;;13.70;99.90;;;;;;4985631;28;20463;-91
2021/08/29 05:07:04;;;;;;;9.43;8.43;;;13.70;99.90;;;;;;4997843;28;20450;-90
2021/08/29 05:09:30;;;;;;;9.67;8.67;;;13.60;99.90;;;;;;4992792;28;20443;-90
2021/08/29 05:12:02;;;;;;;10.40;9.33;;;13.60;99.90;;;;;;4984889;28;20884;-90
2021/08/29 05:14:53;;;;;;;9.47;7.97;;;13.60;99.90;;;;;;4991465;28;20475;-85
2021/08/29 05:17:20;;;;;;;10.27;8.60;;;13.70;99.90;;;;;;4997486;28;20462;-86
2021/08/29 05:20:13;;;;;;;9.33;8.30;;;13.70;99.90;;;;;;4989640;28;20468;-87
2021/08/29 05:22:50;;;;;;;8.13;7.03;;;13.70;99.90;;;;;;4979643;28;20466;-87
2021/08/29 05:25:39;;;;;;;9.07;8.07;;;13.70;99.90;;;;;;4978991;28;20455;-88
2021/08/29 05:28:24;;;;;;;8.50;7.70;;;13.60;99.90;;;;;;4978514;28;20461;-88
2021/08/29 05:31:05;;;;;;;9.13;8.17;;;13.60;99.90;;;;;;4977742;28;20477;-88
2021/08/29 05:33:32;;;;;;;10.10;8.00;;;13.70;99.90;;;;;;4977921;28;20547;-87
2021/08/29 05:35:59;;;;;;;8.43;7.63;;;13.70;99.90;;;;;;4979493;28;20434;-88
2021/08/29 05:38:25;;;;;;;7.70;7.00;;;13.70;99.90;;;;;;4976781;28;20966;-88
2021/08/29 05:40:52;;;;;;;11.57;8.47;;;13.70;99.90;;;;;;4978988;28;20450;-90
2021/08/29 05:43:20;;;;;;;8.00;7.30;;;13.70;99.90;;;;;;4976837;28;20474;-86
2021/08/29 05:45:47;;;;;;;10.03;9.03;;;13.70;99.90;;;;;;4976836;28;20451;-86
2021/08/29 05:48:14;;;;;;;12.93;9.60;;;13.70;99.90;;;;;;4983492;28;20461;-86
2021/08/29 05:50:40;;;;;;;9.57;8.57;;;13.70;99.90;;;;;;4976138;28;20497;-86
2021/08/29 05:53:07;;;;;;;9.27;8.37;;;13.80;99.90;;;;;;4976508;28;20459;-87
2021/08/29 05:55:34;;;;;;;8.17;7.20;;;13.80;99.90;;;;;;4981618;28;20439;-87
2021/08/29 05:58:00;;;;;;;8.10;7.30;;;13.80;99.90;;;;;;4984132;28;20451;-88
2021/08/29 06:00:29;;;;;;;9.20;8.40;;;13.80;99.90;;;;;;4991915;28;20461;-90
2021/08/29 06:02:55;;;;;;;9.40;8.50;;;13.80;99.90;;;;;;4994119;28;20468;-87
2021/08/29 06:05:22;;;;;;;10.60;8.20;;;13.80;99.90;;;;;;4996817;28;20452;-88
2021/08/29 06:07:49;;;;;;;11.53;7.93;;;13.80;99.90;;;;;;4985757;28;20983;-88
2021/08/29 06:10:16;;;;;;;9.03;8.13;;;13.70;99.90;;;;;;4976857;28;20458;-89
2021/08/29 06:12:42;;;;;;;8.87;7.97;;;13.70;99.90;;;;;;4996895;28;20467;-88
2021/08/29 06:15:10;;;;;;;10.40;9.33;;;13.80;99.90;;;;;;4983787;28;20435;-88
2021/08/29 06:17:38;;;;;;;9.60;8.30;;;13.90;99.90;;;;;;4981898;28;20961;-90
2021/08/29 06:20:06;;;;;;;9.67;8.50;;;13.90;99.90;;;;;;4976096;28;20464;-88
2021/08/29 06:22:33;;;;;;;8.87;8.07;;;13.90;99.90;;;;;;4976021;28;20466;-88
2021/08/29 06:25:00;;;;;;;8.50;7.70;;;13.90;99.90;;;;;;4976115;28;20456;-89
2021/08/29 06:27:27;;;;;;;9.00;8.17;;;14.00;99.90;;;;;;4975653;28;20455;-88
2021/08/29 06:29:53;;;;;;;10.60;7.20;;;14.10;99.90;;;;;;4976701;28;20458;-90
2021/08/29 06:32:20;;;;;;;8.30;7.23;;;14.10;99.90;;;;;;4978233;28;20992;-88
2021/08/29 06:34:48;;;;;;;8.73;7.83;;;14.00;99.90;;;;;;4975946;28;20470;-88
2021/08/29 06:37:15;;;;;;;11.50;9.13;;;14.10;99.90;;;;;;4975739;28;20964;-89
2021/08/29 06:39:42;;;;;;;8.33;7.53;;;14.10;99.90;;;;;;4975379;28;20470;-88
2021/08/29 06:42:08;;;;;;;8.63;7.83;;;14.10;99.90;;;;;;4975121;28;20483;-89
2021/08/29 06:44:35;;;;;;;6.43;5.83;;;14.10;99.90;;;;;;4976554;28;20452;-88
2021/08/29 06:47:02;;;;;;;6.47;5.87;;;14.20;99.90;;;;;;4975794;28;20506;-89
2021/08/29 06:49:29;;;;;;;7.40;6.70;;;14.20;99.90;;;;;;4977212;28;20455;-88
2021/08/29 06:51:57;;;;;;;6.50;5.90;;;14.30;99.90;;;;;;4975475;28;20498;-89
2021/08/29 06:54:23;;;;;;;5.70;5.20;;;14.30;99.90;;;;;;4975525;28;20439;-89
2021/08/29 06:56:50;;;;;;;5.10;4.60;;;14.20;99.90;;;;;;4975733;28;20457;-89
2021/08/29 06:59:17;;;;;;;4.90;4.50;;;14.20;99.90;;;;;;4974960;28;20455;-89
2021/08/29 07:01:44;;;;;;;4.07;3.57;;;14.20;99.90;;;;;;4976250;28;20527;-89
2021/08/29 07:04:11;;;;;;;4.37;4.00;;;14.20;99.90;;;;;;4975357;28;20970;-89
2021/08/29 07:06:38;;;;;;;6.70;4.30;;;14.20;99.90;;;;;;4974789;28;20447;-89
2021/08/29 07:09:06;;;;;;;4.53;4.10;;;14.20;99.90;;;;;;4974970;28;20539;-89
2021/08/29 07:11:33;;;;;;;4.27;3.90;;;14.10;99.90;;;;;;4980304;28;20478;-90
2021/08/29 07:14:00;;;;;;;4.07;3.73;;;14.20;99.90;;;;;;4985733;28;20432;-88
2021/08/29 07:16:27;;;;;;;4.60;4.20;;;14.20;99.90;;;;;;4988495;28;20453;-89
2021/08/29 07:18:53;;;;;;;5.53;5.03;;;14.10;99.90;;;;;;4976107;28;20463;-88
2021/08/29 07:21:20;;;;;;;4.73;4.33;;;14.00;99.90;;;;;;4975393;28;20450;-89
2021/08/29 07:23:47;;;;;;;4.50;4.03;;;14.20;99.90;;;;;;4976185;28;20455;-88
2021/08/29 07:26:15;;;;;;;4.80;4.40;;;14.20;99.90;;;;;;4977046;28;20454;-88
2021/08/29 07:28:42;;;;;;;3.57;3.27;;;14.20;99.90;;;;;;4975134;28;20459;-89
2021/08/29 07:31:09;;;;;;;3.53;3.23;;;14.20;99.90;;;;;;4979399;28;20484;-88
2021/08/29 07:33:37;;;;;;;3.40;3.10;;;14.20;99.90;;;;;;4975987;28;20456;-90
2021/08/29 07:36:10;;;;;;;4.20;3.80;;;14.20;99.90;;;;;;4975476;28;20458;-88
2021/08/29 07:39:06;;;;;;;3.07;2.87;;;14.20;99.90;;;;;;4995508;28;20455;-88
2021/08/29 07:41:34;;;;;;;2.93;2.73;;;14.20;99.90;;;;;;4977312;28;20501;-88
2021/08/29 07:44:00;;;;;;;3.17;2.87;;;14.20;99.90;;;;;;4974459;28;20470;-88
2021/08/29 07:46:29;;;;;;;2.97;2.70;;;14.20;99.90;;;;;;4974482;28;20478;-89
2021/08/29 07:48:56;;;;;;;4.43;3.23;;;14.20;99.90;;;;;;4974654;28;20447;-89
2021/08/29 07:51:22;;;;;;;2.73;2.53;;;14.20;99.90;;;;;;4974523;28;20484;-88
2021/08/29 07:53:49;;;;;;;2.73;2.53;;;14.20;99.90;;;;;;4974873;28;20471;-89
2021/08/29 07:56:16;;;;;;;2.97;2.67;;;14.20;99.90;;;;;;4979587;28;20424;-87
2021/08/29 07:58:44;;;;;;;2.50;2.30;;;14.20;99.90;;;;;;4993968;28;20447;-88
2021/08/29 08:01:11;;;;;;;2.40;2.20;;;14.20;99.90;;;;;;4990427;28;20454;-88
2021/08/29 08:03:38;;;;;;;2.43;2.23;;;14.30;99.90;;;;;;4992006;28;20447;-88
2021/08/29 08:06:05;;;;;;;2.67;1.80;;;14.40;99.90;;;;;;4998297;28;20471;-87
2021/08/29 08:08:32;;;;;;;2.20;2.00;;;14.50;99.90;;;;;;4986005;28;20511;-88
2021/08/29 08:10:59;;;;;;;2.87;2.67;;;14.50;99.90;;;;;;4990058;28;20614;-88
2021/08/29 08:13:26;;;;;;;2.10;1.80;;;14.50;99.90;;;;;;4982878;28;20475;-88
2021/08/29 08:15:54;;;;;;;1.97;1.77;;;14.60;99.90;;;;;;4976581;28;20458;-88
2021/08/29 08:18:21;;;;;;;3.03;2.40;;;14.60;99.90;;;;;;4974468;28;20452;-88
2021/08/29 08:20:47;;;;;;;2.60;2.40;;;14.60;99.90;;;;;;4974401;28;20440;-89
2021/08/29 08:23:14;;;;;;;2.60;2.13;;;14.80;99.90;;;;;;4974593;28;20468;-88
2021/08/29 08:25:41;;;;;;;2.03;1.73;;;14.70;99.90;;;;;;4974561;28;20451;-88
2021/08/29 08:28:07;;;;;;;2.30;2.10;;;14.70;99.90;;;;;;4974432;28;20452;-88
2021/08/29 08:30:34;;;;;;;2.07;1.87;;;14.70;99.90;;;;;;4985501;28;20822;-89
2021/08/29 08:33:02;;;;;;;2.40;1.90;;;14.70;99.90;;;;;;4978734;28;20490;-89
2021/08/29 08:35:29;;;;;;;3.40;2.13;;;14.60;99.90;;;;;;4984237;28;20438;-89
2021/08/29 08:37:56;;;;;;;2.40;2.20;;;14.70;99.90;;;;;;4978463;28;20454;-89
2021/08/29 08:40:23;;;;;;;6.90;3.53;;;14.70;99.90;;;;;;4979333;28;20458;-88
2021/08/29 08:42:50;;;;;;;2.93;2.40;;;14.80;99.90;;;;;;4980963;28;20694;-89
2021/08/29 08:45:17;;;;;;;2.30;2.10;;;15.00;99.90;;;;;;5001295;28;20432;-89
2021/08/29 08:47:45;;;;;;;2.50;1.97;;;15.00;99.90;;;;;;4978765;28;20542;-89
2021/08/29 08:50:14;;;;;;;2.87;2.30;;;15.00;99.90;;;;;;4978989;28;20482;-89
2021/08/29 08:52:42;;;;;;;2.33;1.70;;;15.00;99.90;;;;;;4981642;28;20886;-88
2021/08/29 08:55:11;;;;;;;2.00;1.67;;;15.00;99.90;;;;;;4979925;28;20475;-89
2021/08/29 08:57:46;;;;;;;2.43;1.67;;;15.00;99.90;;;;;;4979830;28;20459;-89
2021/08/29 09:00:14;;;;;;;1.60;1.50;;;15.00;99.90;;;;;;4979974;28;20818;-88
2021/08/29 09:02:52;;;;;;;1.93;1.80;;;15.00;99.90;;;;;;4979711;28;20972;-88
2021/08/29 09:05:33;;;;;;;2.13;1.93;;;15.00;99.90;;;;;;4978013;28;20459;-89
2021/08/29 09:11:23;;;;;;;1.60;1.50;;;15.10;99.90;;;;;;4974959;28;20432;-89
2021/08/29 09:14:12;;;;;;;2.40;1.43;;;15.20;99.90;;;;;;4981075;28;20526;-88
2021/08/29 09:16:53;;;;;;;1.73;1.30;;;15.20;99.90;;;;;;4979529;28;20456;-89
2021/08/29 09:19:35;;;;;;;1.60;1.47;;;15.20;99.90;;;;;;4979828;28;20452;-88
2021/08/29 09:22:18;;;;;;;1.50;1.40;;;15.20;99.90;;;;;;4985196;28;20443;-90
2021/08/29 09:25:11;;;;;;;1.70;1.60;;;15.30;99.90;;;;;;5000184;28;20456;-87
2021/08/29 09:27:41;;;;;;;1.60;1.50;;;15.40;99.90;;;;;;5000748;28;20240;-87
2021/08/29 09:30:09;;;;;;;1.40;1.30;;;15.40;99.90;;;;;;5001033;28;20446;-89
2021/08/29 09:32:58;;;;;;;1.30;1.20;;;15.40;99.90;;;;;;4997980;28;20488;-89
2021/08/29 09:44:22;;;;;;;1.03;0.93;;;15.50;99.90;;;;;;4975205;28;20841;-86
2021/08/29 09:46:54;;;;;;;0.90;0.90;;;15.50;99.90;;;;;;4977191;28;20450;-86
2021/08/29 09:49:28;;;;;;;3.30;1.23;;;15.40;99.90;;;;;;4977369;28;20804;-86
2021/08/29 09:51:55;;;;;;;1.33;1.23;;;15.40;99.90;;;;;;4976950;28;20484;-85
2021/08/29 09:54:32;;;;;;;1.03;0.97;;;15.40;99.90;;;;;;4977381;28;20460;-87
2021/08/29 09:57:00;;;;;;;2.87;0.90;;;15.60;99.90;;;;;;4978646;28;20459;-86
2021/08/29 09:59:41;;;;;;;1.80;1.63;;;15.60;99.90;;;;;;4978023;28;20458;-86
2021/08/29 10:02:09;;;;;;;0.80;0.80;;;15.70;99.90;;;;;;4977059;28;20467;-87
2021/08/29 10:04:36;;;;;;;1.00;0.90;;;15.70;99.90;;;;;;4978287;28;20455;-87
2021/08/29 10:07:17;;;;;;;1.37;1.27;;;15.60;99.90;;;;;;4978519;28;20535;-87
2021/08/29 10:09:58;;;;;;;1.40;1.30;;;15.60;99.90;;;;;;4980142;28;20451;-86
2021/08/29 10:12:30;;;;;;;2.17;1.63;;;15.60;99.90;;;;;;4976597;28;20483;-86
2021/08/29 10:15:02;;;;;;;1.40;1.30;;;15.60;99.90;;;;;;4976686;28;20432;-87
2021/08/29 10:17:46;;;;;;;1.13;0.97;;;15.50;99.90;;;;;;4977306;28;20793;-88
2021/08/29 10:20:30;;;;;;;1.73;1.40;;;15.40;99.90;;;;;;4976368;28;20497;-88
2021/08/29 10:23:21;;;;;;;2.80;1.77;;;15.40;99.90;;;;;;4982617;28;20444;-89
2021/08/29 10:25:51;;;;;;;1.53;1.30;;;15.50;99.90;;;;;;4999866;28;20447;-90
2021/08/29 10:28:24;;;;;;;1.70;1.60;;;15.70;99.90;;;;;;4989074;28;20503;-86
2021/08/29 10:30:55;;;;;;;1.73;1.17;;;16.00;99.90;;;;;;4997348;28;20444;-90
2021/08/29 10:33:22;;;;;;;1.10;1.00;;;16.10;99.90;;;;;;4983262;28;20571;-88
2021/08/29 10:35:50;;;;;;;1.03;0.93;;;16.00;99.90;;;;;;4982415;28;20455;-87
2021/08/29 10:38:19;;;;;;;1.43;1.30;;;15.80;99.90;;;;;;4983814;28;20432;-85
2021/08/29 10:40:50;;;;;;;1.40;1.30;;;15.70;99.90;;;;;;4981810;28;20532;-87
2021/08/29 10:43:19;;;;;;;1.30;1.20;;;15.60;99.90;;;;;;4998878;28;20491;-85
2021/08/29 10:45:46;;;;;;;1.60;1.20;;;15.50;99.90;;;;;;4996432;28;20444;-85
2021/08/29 10:48:18;;;;;;;1.47;1.27;;;15.40;99.90;;;;;;4983145;28;20470;-87
2021/08/29 10:50:49;;;;;;;1.47;1.37;;;15.30;99.90;;;;;;4983731;28;20668;-87
2021/08/29 10:53:33;;;;;;;1.60;1.43;;;15.40;99.90;;;;;;4988070;28;20586;-87
2021/08/29 10:56:33;;;;;;;1.23;1.13;;;15.40;99.90;;;;;;4979326;28;20458;-89
2021/08/29 10:59:20;;;;;;;2.30;2.10;;;15.50;99.90;;;;;;4978854;28;20460;-87
2021/08/29 11:01:48;;;;;;;2.30;2.10;;;15.70;99.90;;;;;;4982776;28;20484;-85
2021/08/29 11:04:43;;;;;;;2.70;2.50;;;15.80;99.90;;;;;;4978977;28;20445;-87
2021/08/29 11:07:10;;;;;;;3.43;3.13;;;15.90;99.90;;;;;;4980632;28;20429;-91
2021/08/29 11:09:46;;;;;;;8.23;6.40;;;16.00;99.90;;;;;;4998838;28;20499;-84
2021/08/29 11:12:34;;;;;;;6.00;5.50;;;16.00;99.90;;;;;;4993098;28;20499;-87
2021/08/29 11:15:24;;;;;;;6.57;5.80;;;16.10;99.90;;;;;;4984803;28;20972;-93
2021/08/29 11:18:02;;;;;;;6.07;5.57;;;16.20;99.90;;;;;;4979870;28;20471;-86
2021/08/29 11:20:40;;;;;;;5.70;5.30;;;16.20;99.90;;;;;;4981212;28;20446;-92
2021/08/29 11:23:46;;;;;;;6.97;6.47;;;16.40;99.90;;;;;;4984061;28;20468;-91
2021/08/29 11:26:41;;;;;;;6.03;5.63;;;16.50;99.90;;;;;;4984533;28;20514;-88
2021/08/29 11:29:54;;;;;;;5.30;4.40;;;16.60;99.90;;;;;;4980174;28;20463;-88
2021/08/29 11:32:43;;;;;;;5.00;4.60;;;16.60;99.90;;;;;;4976793;28;20598;-86
2021/08/29 11:35:19;;;;;;;5.17;4.77;;;16.60;99.90;;;;;;4985842;28;20444;-87
2021/08/29 11:38:05;;;;;;;3.90;3.60;;;16.60;99.90;;;;;;4985910;28;20463;-88
2021/08/29 11:41:00;;;;;;;3.30;2.97;;;16.60;99.90;;;;;;4977565;28;20976;-88
2021/08/29 11:43:42;;;;;;;3.87;3.57;;;16.50;99.90;;;;;;4979084;28;20479;-87
2021/08/29 11:46:14;;;;;;;3.93;3.63;;;16.60;99.90;;;;;;4977219;28;20452;-88
2021/08/29 11:48:55;;;;;;;4.90;4.60;;;16.80;99.90;;;;;;4976545;28;20465;-88
2021/08/29 11:51:30;;;;;;;5.87;5.37;;;16.90;99.90;;;;;;4977245;28;20514;-88
2021/08/29 11:53:58;;;;;;;5.73;5.33;;;17.10;99.90;;;;;;4976179;28;20502;-88
2021/08/29 11:56:30;;;;;;;5.77;5.37;;;17.30;99.90;;;;;;4980619;28;20976;-88
2021/08/29 11:59:01;;;;;;;5.10;4.80;;;17.40;99.90;;;;;;4977367;28;20560;-88
2021/08/29 12:01:30;;;;;;;5.07;4.77;;;17.50;99.90;;;;;;4976974;28;20467;-88
2021/08/29 12:04:02;;;;;;;4.80;4.40;;;17.60;99.90;;;;;;4976307;28;20827;-90
2021/08/29 12:06:34;;;;;;;5.93;4.53;;;17.60;99.90;;;;;;4983895;28;20471;-87
2021/08/29 12:09:09;;;;;;;4.80;4.40;;;17.50;99.90;;;;;;4983694;28;20467;-88
2021/08/29 12:11:39;;;;;;;3.07;2.87;;;17.40;99.90;;;;;;4982986;28;20482;-88
2021/08/29 12:14:14;;;;;;;3.70;3.50;;;17.50;99.90;;;;;;4984368;28;20822;-88
2021/08/29 12:16:46;;;;;;;3.30;3.00;;;17.50;99.90;;;;;;4981820;28;20450;-88
2021/08/29 12:19:15;;;;;;;3.73;3.50;;;17.40;99.90;;;;;;4982791;28;20451;-88
2021/08/29 12:21:44;;;;;;;4.23;3.60;;;17.50;99.90;;;;;;4988631;28;20447;-88
2021/08/29 12:24:11;;;;;;;3.90;3.50;;;17.60;99.90;;;;;;4986726;28;20448;-88
2021/08/29 12:26:39;;;;;;;4.90;4.60;;;17.70;99.90;;;;;;4987261;28;21006;-87
2021/08/29 12:29:09;;;;;;;3.63;3.43;;;17.80;99.90;;;;;;4982921;28;20456;-87
2021/08/29 12:31:37;;;;;;;3.23;2.93;;;17.90;99.90;;;;;;4988542;28;20456;-89
2021/08/29 12:34:04;;;;;;;3.73;3.43;;;18.00;99.90;;;;;;4983969;28;20514;-86
2021/08/29 12:36:36;;;;;;;4.07;3.67;;;18.00;99.90;;;;;;4985086;28;20459;-87
2021/08/29 12:39:11;;;;;;;3.97;3.67;;;18.10;99.90;;;;;;4983832;28;20447;-87
2021/08/29 12:41:41;;;;;;;4.00;3.70;;;18.20;99.90;;;;;;4987993;28;20426;-87
2021/08/29 12:44:08;;;;;;;4.07;3.67;;;18.20;99.90;;;;;;5003893;28;20492;-88
2021/08/29 12:46:39;;;;;;;3.67;3.37;;;18.10;99.90;;;;;;4994919;28;20456;-88
2021/08/29 12:49:06;;;;;;;4.20;3.90;;;17.90;99.90;;;;;;5003928;28;20455;-88
2021/08/29 12:51:34;;;;;;;4.73;4.43;;;17.80;99.90;;;;;;4988552;28;20429;-88
2021/08/29 12:54:02;;;;;;;5.70;5.30;;;17.60;99.90;;;;;;5003374;28;20566;-88
2021/08/29 12:56:29;;;;;;;5.77;5.27;;;17.50;99.90;;;;;;5001455;28;20637;-87
2021/08/29 12:58:57;;;;;;;5.40;5.00;;;17.30;99.90;;;;;;4995080;28;20468;-87
2021/08/29 13:01:23;;;;;;;11.00;9.20;;;17.10;99.90;;;;;;4981505;28;20439;-87
2021/08/29 13:03:52;;;;;;;7.63;6.93;;;17.00;99.90;;;;;;4981249;28;20477;-89
2021/08/29 13:06:22;;;;;;;9.03;8.13;;;17.00;99.90;;;;;;4980577;28;20486;-88
2021/08/29 13:08:51;;;;;;;6.10;5.50;;;17.00;99.90;;;;;;4980715;28;20439;-89
2021/08/29 13:11:22;;;;;;;5.97;5.13;;;17.10;99.90;;;;;;4980510;28;20455;-88
2021/08/29 13:13:54;;;;;;;6.13;5.47;;;17.10;99.90;;;;;;4979972;28;20491;-89